Terminal Aerodrome Forecast
Issued by NWS Sterling, VA

Home | Current Version | Previous Version | Text Only | Print | Product List | Glossary On
Versions: 1 2 3 4 5 6 7 8 9 10 11 12 13 14 15 16 17 18 19 20 21 22 23 24 25 26 27 28 29 30
000
FTUS41 KLWX 272333
TAFBWI
TAF
KBWI 272333Z 2800/2906 33007KT P6SM SKC
     FM280300 33009KT P6SM BKN090
     FM281100 32013KT P6SM BKN060 PROB30 2814/2818 -SHSN
     FM282300 31011KT P6SM SCT050
     FM290200 32010KT P6SM SCT250=

USA.gov is the U.S. government's official web portal to all federal, state and local government web resources and services.